Portada
METAR-TAF:

METAR-TAF

Aeropuertos :

Aeropuerto Internacional Madre Teresa

Tirana, Albania

latitud: 41-20N, longitud: 019-47E, altitud: 89 m

Observación

El informe se hizo hace 31 minutos, a las 08:50 UTC
Viento 1 kt con dirección variable
Temperatura 13°C
Humedad 54%
Presión 1025 hPa
Visibilidad 10 km o más
sin nubes por debajo de 1500 m y sin presencia de cumulonimbus.

METAR: LATI 070850Z VRB01KT CAVOK 13/04 Q1025 NOSIG

Hora: 10:21 (09:21 UTC)

Pronóstico

El informe se hizo hace 4 horas y 21 minutos, a las 05:00 UTC
Pronóstico válido del 07 a las 06 UTC al 08 a las 06 UTC
Viento 5 kt con dirección variable
Visibilidad 10 km o más
sin nubes por debajo de 1500 m y sin presencia de cumulonimbus.
Temporalmente
del 07 a las 10 UTC al 07 a las 17 UTC
Viento 12 kt del norte-noroeste

TAF: LATI 070500Z 0706/0806 VRB05KT CAVOK TX17/0712Z TN01/0805Z TEMPO 0710/0717 34012KT

Observaciones y pronósticos meteorológicos de más de 4000 aeropuertos (mensajes METAR y TAF).

Los puntos amarillos y rojos representan las estaciones disponibles.

Ponga el ratón en el punto deseado para ver el nombre de la estación.

Haga clic para ver las observaciones y los pronósticos meteorológicos.

Para cambiar el mapa : haga clic en los botones verdes con una cruz de color negro para hacer un zoom, en el botón verde con un guión para alejar o en las flechas verdes para mapas adyacentes.


METAR-TAF: